Besuchen Sie unsere anderen Wetter Stationen:

Template documentation
and downloads

And another site



METAR-Meldungen aus der Umgebung


Warning: A non-numeric value encountered in /is/htdocs/wp10906056_0YHW7Q9XB7/www/weather28/metar/metarDisplay.php on line 166
   
EHVK - Volkel Rnlafb, Netherlands
Entfernung von der Station bis: SW 18 km
Aktualisierung: 26-10-2020 02:25
Bewölkt  
Bewölkt  
   Wind: Süden 11.1 km/h
Wind: Süden 11.1 km/h
Temperatur: 10°C
Gefühlt: 8°C
Taupunkt: 9°C
Luftfeuchte: 94%
Luftdruck: 1000 hPa
Bewölkt: Bewölkt
Sichtbarkeit: More than 10 km
Bewölkung: leicht bewölkt 944.9 m,
Bewölkt 6705.6 m
EHVK 260125Z AUTO 18006KT 150V220 9999 FEW031 OVC220 10/09 Q1000 BLU
EDLV - Niederrhein, Germany
Entfernung von der Station bis: SO 25 km
Aktualisierung: 25-10-2020 23:50
Nicht aktuell
Klar  
Klar  
   Wind: Süden 13 km/h
Wind: Süden 13 km/h
Temperatur: 10°C
Gefühlt: 8°C
Taupunkt: 9°C
Luftfeuchte: 94%
Luftdruck: 1001 hPa
Sichtbarkeit: More than 10 km
Bewölkung: Klar
EDLV 252250Z 18007KT CAVOK 10/09 Q1001
EHDL - Deelen Rnlafb, Netherlands
Entfernung von der Station bis: N 35 km
Aktualisierung: 26-10-2020 02:25
Bewölkt  
Bewölkt  
   Wind: Süden 13 km/h
Wind: Süden 13 km/h
Temperatur: 10°C
Gefühlt: 8°C
Taupunkt: 9°C
Luftfeuchte: 94%
Luftdruck: 999 hPa
Bewölkt: Bewölkt
Sichtbarkeit: More than 10 km
Bewölkung: leicht bewölkt 1341.1 m,
Bewölkt 1767.8 m
EHDL 260125Z AUTO 18007KT 140V240 9999 FEW044 OVC058 10/09 Q0999 BLU
EHEH - Eindhoven Rnlafb, Netherlands
Entfernung von der Station bis: SW 48 km
Aktualisierung: 26-10-2020 02:25
Bewölkt  
Bewölkt  
   Wind: Süden 13 km/h
Wind: Süden 13 km/h
Temperatur: 10°C
Gefühlt: 8°C
Taupunkt: 9°C
Luftfeuchte: 94%
Luftdruck: 1000 hPa
Bewölkt: Bewölkt
Sichtbarkeit: More than 10 km
Bewölkung: Stark bewölkt 518.2 m,
Bewölkt 6705.6 m
EHEH 260125Z AUTO 18007KT 150V210 9999 BKN017 OVC220 10/09 Q1000 WHT
EHGR - Gilze-Rijen Rnla, Netherlands
Entfernung von der Station bis: WSW 70 km
Aktualisierung: 26-10-2020 02:25
Bewölkt  
Bewölkt  
   Wind: SSW 13 km/h
Wind: SSW 13 km/h
Temperatur: 10°C
Gefühlt: 8°C
Taupunkt: 9°C
Luftfeuchte: 94%
Luftdruck: 999 hPa
Bewölkt: Bewölkt
Sichtbarkeit: More than 10 km
Bewölkung: leicht bewölkt 335.3 m,
Bewölkt 396.2 m
EHGR 260125Z AUTO 20007KT 160V260 9999 FEW011 OVC013 10/09 Q0999 GRN
EBBL - Kleine-Brogel(Ba, Belgium
Entfernung von der Station bis: SSW 71 km
Aktualisierung: 26-10-2020 02:03
Stark bewölkt  
Stark bewölkt  
   Wind: SSW 7.4 km/h
Wind: SSW 7.4 km/h
Temperatur: 10°C
Gefühlt: 9°C
Taupunkt: 9°C
Luftfeuchte: 94%
Luftdruck: 1000 hPa
Bewölkt: Stark bewölkt
Sichtbarkeit: More than 10 km
Bewölkung: Stark bewölkt 640.1 m,
Stark bewölkt 6705.6 m
EBBL 260103Z AUTO 21004KT 9999 BKN021/// BKN220/// 10/09 Q1000 WHT

Script entwickelt von  Saratoga-weather.org Angepasst für das Template von  Weerstation Leuven

Sie finden unser Wetter-Infos auch auf:

netzwerkwettercom

European Weather Network

WeatherCloud

Weather Underground

AWEKAS

Citizen Weather Observer Program (CWOP)

HAMweather, WeatherForYou, PWS Weather

Von uns verwendete Ausrüstung:

Wetterstation
Davis VP2

Wetterprogramm
Weather Display

Davis VP2

Weather Display